createdAt,value
2022-11-13T00:01:25.439Z,153.07
2022-11-13T00:03:52.248Z,163.40
2022-11-13T00:06:20.163Z,148.87
2022-11-13T00:08:47.840Z,195.70
2022-11-13T00:11:19.631Z,158.10
2022-11-13T00:13:47.621Z,149.40
2022-11-13T00:16:20.542Z,159.43
2022-11-13T00:18:48.062Z,135.73
2022-11-13T00:21:17.941Z,137.53
2022-11-13T00:23:44.721Z,105.73
2022-11-13T00:26:16.428Z,119.73
2022-11-13T00:28:43.541Z,151.07
2022-11-13T00:31:12.325Z,118.30
2022-11-13T00:34:05.190Z,87.43
2022-11-13T00:36:28.068Z,148.40
2022-11-13T00:38:55.372Z,128.57
2022-11-13T00:41:23.317Z,104.87
2022-11-13T00:43:50.340Z,150.57
2022-11-13T00:46:17.077Z,131.73
2022-11-13T00:48:43.798Z,105.87
2022-11-13T00:51:10.893Z,124.63
2022-11-13T00:53:37.711Z,106.43
2022-11-13T00:56:04.887Z,145.10
2022-11-13T00:58:31.937Z,120.37
2022-11-13T01:01:06.336Z,146.57
2022-11-13T01:03:33.308Z,89.20
2022-11-13T01:06:00.408Z,106.10
2022-11-13T01:08:27.719Z,137.77
2022-11-13T01:10:54.629Z,118.17
2022-11-13T01:13:21.388Z,135.57
2022-11-13T01:15:48.086Z,81.93
2022-11-13T01:18:14.828Z,87.23
2022-11-13T01:20:41.606Z,81.53
2022-11-13T01:23:08.351Z,87.00
2022-11-13T01:25:35.456Z,96.33
2022-11-13T01:28:02.371Z,78.77
2022-11-13T01:30:29.111Z,74.60
2022-11-13T01:32:55.903Z,83.80
2022-11-13T01:35:22.695Z,75.37
2022-11-13T01:37:49.390Z,89.57
2022-11-13T01:40:16.208Z,97.77
2022-11-13T01:42:42.917Z,115.93
2022-11-13T01:45:47.225Z,158.93
2022-11-13T01:48:14.001Z,94.27
2022-11-13T01:50:40.905Z,84.27
2022-11-13T01:53:08.366Z,87.73
2022-11-13T01:55:35.269Z,92.37
2022-11-13T01:58:04.942Z,104.67
2022-11-13T02:00:31.711Z,86.03
2022-11-13T02:02:58.455Z,177.50
2022-11-13T02:05:25.318Z,155.03
2022-11-13T02:07:52.131Z,149.97
2022-11-13T02:10:19.075Z,179.03
2022-11-13T02:12:50.710Z,80.30
2022-11-13T02:15:21.276Z,175.50
2022-11-13T02:17:54.012Z,188.60
2022-11-13T02:20:40.672Z,105.23
2022-11-13T02:23:27.024Z,100.83
2022-11-13T02:25:54.801Z,163.27
2022-11-13T02:28:21.753Z,162.27
2022-11-13T02:30:48.518Z,213.10
2022-11-13T02:33:24.369Z,202.20
2022-11-13T02:35:51.606Z,125.23
2022-11-13T02:38:18.428Z,150.23
2022-11-13T02:40:45.290Z,107.63
2022-11-13T02:43:12.108Z,230.50
2022-11-13T02:45:38.859Z,233.47
2022-11-13T02:48:07.230Z,223.50
2022-11-13T02:50:35.514Z,229.53
2022-11-13T02:53:02.741Z,157.67
2022-11-13T02:55:29.658Z,267.30
2022-11-13T02:57:56.440Z,175.87
2022-11-13T03:00:23.267Z,307.73
2022-11-13T03:02:50.072Z,127.90
2022-11-13T03:05:16.966Z,321.50
2022-11-13T03:07:43.777Z,437.70
2022-11-13T03:10:11.655Z,554.17
2022-11-13T03:12:39.244Z,521.37
2022-11-13T03:15:08.047Z,373.27
2022-11-13T03:17:35.363Z,292.83
2022-11-13T03:20:02.298Z,489.97
2022-11-13T03:22:29.111Z,360.73
2022-11-13T03:24:55.870Z,478.03
2022-11-13T03:27:22.776Z,372.60
2022-11-13T03:29:49.498Z,464.40
2022-11-13T03:32:16.356Z,393.37
2022-11-13T03:34:43.078Z,404.63
2022-11-13T03:37:09.795Z,419.23
2022-11-13T03:39:36.559Z,424.77
2022-11-13T03:42:03.302Z,420.87
2022-11-13T03:44:30.042Z,319.53
2022-11-13T03:46:56.746Z,429.83
2022-11-13T03:49:23.542Z,438.17
2022-11-13T03:51:50.237Z,379.60
2022-11-13T03:54:17.134Z,372.80
2022-11-13T03:56:43.869Z,367.63
2022-11-13T03:59:10.627Z,333.93
2022-11-13T04:01:37.412Z,347.47
2022-11-13T04:04:04.337Z,113.33
2022-11-13T04:06:31.102Z,328.77
2022-11-13T04:08:57.902Z,261.93
2022-11-13T04:11:24.682Z,179.77
2022-11-13T04:13:51.366Z,132.93
2022-11-13T04:16:18.144Z,148.30
2022-11-13T04:18:44.903Z,122.37
2022-11-13T04:21:11.764Z,153.93
2022-11-13T04:23:38.585Z,223.10
2022-11-13T04:26:05.706Z,196.83
2022-11-13T04:28:32.738Z,231.73
2022-11-13T04:30:59.590Z,191.60
2022-11-13T04:33:26.386Z,220.77
2022-11-13T04:35:53.098Z,179.33
2022-11-13T04:38:19.840Z,103.33
2022-11-13T04:40:50.477Z,180.77
2022-11-13T04:43:17.195Z,167.40
2022-11-13T04:45:43.895Z,178.07
2022-11-13T04:48:10.637Z,125.47
2022-11-13T04:50:37.432Z,126.13
2022-11-13T04:53:04.152Z,162.47
2022-11-13T04:55:30.875Z,154.97
2022-11-13T04:57:57.660Z,129.80
2022-11-13T05:00:24.352Z,90.17
2022-11-13T05:02:51.085Z,156.93
2022-11-13T05:05:18.046Z,137.30
2022-11-13T05:07:44.803Z,172.03
2022-11-13T05:10:11.514Z,113.80
2022-11-13T05:12:38.350Z,170.03
2022-11-13T05:15:05.909Z,151.67
2022-11-13T05:17:32.632Z,202.33
2022-11-13T05:19:59.318Z,161.00
2022-11-13T05:22:26.120Z,154.17
2022-11-13T05:24:52.879Z,195.90
2022-11-13T05:27:19.586Z,184.03
2022-11-13T05:29:46.318Z,210.23
2022-11-13T05:32:13.124Z,151.70
2022-11-13T05:34:39.816Z,201.43
2022-11-13T05:37:06.513Z,165.60
2022-11-13T05:39:33.213Z,233.50
2022-11-13T05:41:59.908Z,139.57
2022-11-13T05:44:26.612Z,144.43
2022-11-13T05:46:53.323Z,239.60
2022-11-13T05:49:20.147Z,247.37
2022-11-13T05:51:46.910Z,191.57
2022-11-13T05:54:13.876Z,148.63
2022-11-13T05:56:40.637Z,204.90
2022-11-13T05:59:07.742Z,134.33
2022-11-13T06:01:39.710Z,222.50
2022-11-13T06:04:07.534Z,232.30
2022-11-13T06:06:34.468Z,184.87
2022-11-13T06:09:04.017Z,235.07
2022-11-13T06:11:31.111Z,271.80
2022-11-13T06:13:59.088Z,175.43
2022-11-13T06:16:33.980Z,200.10
2022-11-13T06:19:02.461Z,180.20
2022-11-13T06:21:32.931Z,173.17
2022-11-13T06:24:00.992Z,159.50
2022-11-13T06:26:33.456Z,223.80
2022-11-13T06:29:01.342Z,160.20
2022-11-13T06:31:30.562Z,132.70
2022-11-13T06:33:59.197Z,172.40
2022-11-13T06:36:31.324Z,176.70
2022-11-13T06:38:58.368Z,174.83
2022-11-13T06:41:27.250Z,204.20
2022-11-13T06:43:54.973Z,121.33
2022-11-13T06:46:25.900Z,133.63
2022-11-13T06:48:53.218Z,173.33
2022-11-13T06:51:22.657Z,177.50
2022-11-13T06:53:49.813Z,190.03
2022-11-13T06:56:17.813Z,159.87
2022-11-13T06:58:45.090Z,211.63
2022-11-13T07:01:14.907Z,168.37
2022-11-13T07:03:41.980Z,213.13
2022-11-13T07:06:17.300Z,205.53
2022-11-13T07:08:45.006Z,193.10
2022-11-13T07:11:18.188Z,182.27
2022-11-13T07:13:45.818Z,182.73
2022-11-13T07:16:17.396Z,153.07
2022-11-13T07:18:52.222Z,187.17
2022-11-13T07:21:19.514Z,123.20
2022-11-13T07:23:48.829Z,251.97
2022-11-13T07:26:15.718Z,212.60
2022-11-13T07:28:42.597Z,194.27
2022-11-13T07:31:11.339Z,184.23
2022-11-13T07:33:38.105Z,188.67
2022-11-13T07:36:05.498Z,137.77
2022-11-13T07:38:32.396Z,160.63
2022-11-13T07:41:00.061Z,172.97
2022-11-13T07:43:27.153Z,194.87
2022-11-13T07:45:55.416Z,131.10
2022-11-13T07:48:22.624Z,239.37
2022-11-13T07:50:50.414Z,219.10
2022-11-13T07:53:18.201Z,139.60
2022-11-13T07:55:45.005Z,196.27
2022-11-13T07:58:11.906Z,177.43
2022-11-13T08:00:39.019Z,204.23
2022-11-13T08:03:07.607Z,213.23
2022-11-13T08:05:34.681Z,205.63
2022-11-13T08:08:01.707Z,171.23
2022-11-13T08:10:28.899Z,140.50
2022-11-13T08:13:04.176Z,164.47
2022-11-13T08:15:32.301Z,82.13
2022-11-13T08:18:01.369Z,99.93
2022-11-13T08:20:30.103Z,55.87
2022-11-13T08:22:58.455Z,79.20
2022-11-13T08:25:25.397Z,61.13
2022-11-13T08:27:53.961Z,122.17
2022-11-13T08:30:21.469Z,197.30
2022-11-13T08:32:48.533Z,150.63
2022-11-13T08:35:19.136Z,64.17
2022-11-13T08:37:47.045Z,78.63
2022-11-13T08:40:14.090Z,131.77
2022-11-13T08:42:40.841Z,143.27
2022-11-13T08:45:08.504Z,165.60
2022-11-13T08:47:36.608Z,163.90
2022-11-13T08:50:04.746Z,216.77
2022-11-13T08:52:31.521Z,165.63
2022-11-13T08:54:58.312Z,222.20
2022-11-13T08:57:25.051Z,193.03
2022-11-13T08:59:51.834Z,143.37
2022-11-13T09:02:18.575Z,149.97
2022-11-13T09:04:45.372Z,161.27
2022-11-13T09:07:12.147Z,130.73
2022-11-13T09:09:38.927Z,107.97
2022-11-13T09:12:06.056Z,84.57
2022-11-13T09:14:32.843Z,123.27
2022-11-13T09:16:59.801Z,168.07
2022-11-13T09:19:27.028Z,152.13
2022-11-13T09:21:53.852Z,101.50
2022-11-13T09:24:20.824Z,212.40
2022-11-13T09:26:47.642Z,147.70
2022-11-13T09:29:14.378Z,96.93
2022-11-13T09:31:41.428Z,219.90
2022-11-13T09:34:09.090Z,167.63
2022-11-13T09:36:36.225Z,88.70
2022-11-13T09:39:04.550Z,79.47
2022-11-13T09:41:59.821Z,101.77
2022-11-13T09:44:42.968Z,108.43
2022-11-13T09:47:30.526Z,83.47
2022-11-13T09:50:12.836Z,104.13
2022-11-13T09:52:46.030Z,70.67
2022-11-13T09:55:15.869Z,67.17
2022-11-13T09:58:00.778Z,58.30
2022-11-13T10:00:29.546Z,48.50
2022-11-13T10:06:36.509Z,67.83
2022-11-13T10:09:33.910Z,77.73
2022-11-13T10:12:07.399Z,147.57
2022-11-13T10:14:46.005Z,98.87
2022-11-13T10:17:28.816Z,91.40
2022-11-13T10:19:57.655Z,97.03
2022-11-13T10:22:34.867Z,98.23
2022-11-13T10:25:25.231Z,77.70
2022-11-13T10:28:16.188Z,78.63
2022-11-13T10:30:50.473Z,52.07
2022-11-13T10:33:20.328Z,78.33
2022-11-13T10:35:53.219Z,53.30
2022-11-13T10:38:50.186Z,34.47
2022-11-13T10:41:19.801Z,27.20
2022-11-13T10:43:59.801Z,29.63
2022-11-13T10:46:29.969Z,36.70
2022-11-13T10:49:12.733Z,36.57
2022-11-13T10:51:39.811Z,41.67
2022-11-13T10:54:28.026Z,41.57
2022-11-13T10:57:03.627Z,43.67
2022-11-13T10:59:42.359Z,31.63
2022-11-13T11:02:19.580Z,36.50
2022-11-13T11:04:47.536Z,29.73
2022-11-13T11:07:20.626Z,23.77
2022-11-13T11:09:48.836Z,43.70
2022-11-13T11:12:30.942Z,22.17
2022-11-13T11:15:01.253Z,28.73
2022-11-13T11:17:49.703Z,26.03
2022-11-13T11:20:16.566Z,20.73
2022-11-13T11:22:45.807Z,20.67
2022-11-13T11:25:31.694Z,17.67
2022-11-13T11:28:14.627Z,20.40
2022-11-13T11:30:56.877Z,17.77
2022-11-13T11:33:31.390Z,18.70
2022-11-13T11:36:28.183Z,23.30
2022-11-13T11:39:09.986Z,19.63
2022-11-13T11:41:46.186Z,18.77
2022-11-13T11:44:24.530Z,17.20
2022-11-13T11:46:51.222Z,18.73
2022-11-13T11:49:19.986Z,21.80
2022-11-13T11:51:55.557Z,18.37
2022-11-13T11:54:41.931Z,16.70
2022-11-13T11:57:47.032Z,20.87
2022-11-13T12:00:21.065Z,17.63
2022-11-13T12:03:06.521Z,15.57
2022-11-13T12:05:47.911Z,18.50
2022-11-13T12:08:52.730Z,17.20
2022-11-13T12:11:33.562Z,19.13
2022-11-13T12:14:28.163Z,19.67
2022-11-13T12:17:27.964Z,18.40
2022-11-13T12:20:03.503Z,16.40
2022-11-13T12:22:48.007Z,21.07
2022-11-13T12:25:38.842Z,17.87
2022-11-13T12:28:24.876Z,18.17
2022-11-13T12:31:39.157Z,17.63
2022-11-13T12:34:09.865Z,16.40
2022-11-13T12:36:37.349Z,16.97
2022-11-13T12:39:27.498Z,22.03
2022-11-13T12:42:12.367Z,20.00
2022-11-13T12:44:51.953Z,16.93
2022-11-13T12:47:18.753Z,17.10
2022-11-13T12:49:45.693Z,19.17
2022-11-13T12:52:22.823Z,17.27
2022-11-13T12:54:50.101Z,19.97
2022-11-13T12:57:27.276Z,19.27
2022-11-13T12:59:58.990Z,18.17
2022-11-13T13:02:34.582Z,18.40
2022-11-13T13:08:25.876Z,18.13
2022-11-13T13:11:16.478Z,17.10
2022-11-13T13:13:51.980Z,17.20
2022-11-13T13:16:29.625Z,17.63
2022-11-13T13:19:32.035Z,17.57
2022-11-13T13:21:58.739Z,16.70
2022-11-13T13:24:31.822Z,17.67
2022-11-13T13:27:00.250Z,16.93
2022-11-13T13:29:28.744Z,17.50
2022-11-13T13:32:13.644Z,17.53
2022-11-13T13:35:09.992Z,18.43
2022-11-13T13:37:58.532Z,16.97
2022-11-13T13:40:51.586Z,17.97
2022-11-13T13:43:37.094Z,16.80
2022-11-13T13:46:29.536Z,15.17
2022-11-13T13:49:14.414Z,15.17
2022-11-13T13:51:47.927Z,15.67
2022-11-13T13:54:22.293Z,15.80
2022-11-13T13:56:49.446Z,15.47
2022-11-13T13:59:32.142Z,16.13
2022-11-13T14:02:01.446Z,16.37
2022-11-13T14:04:33.065Z,14.90
2022-11-13T14:07:02.019Z,12.57
2022-11-13T14:09:30.715Z,14.77
2022-11-13T14:12:17.260Z,14.40
2022-11-13T14:14:44.186Z,15.10
2022-11-13T14:17:12.488Z,15.63
2022-11-13T14:19:39.392Z,15.23
2022-11-13T14:22:08.663Z,14.53
2022-11-13T14:24:45.217Z,14.33
2022-11-13T14:27:18.796Z,13.67
2022-11-13T14:29:52.052Z,13.37
2022-11-13T14:32:25.497Z,15.60
2022-11-13T14:34:55.803Z,13.73
2022-11-13T14:37:23.178Z,13.63
2022-11-13T14:39:51.471Z,14.30
2022-11-13T14:42:21.428Z,13.30
2022-11-13T14:44:48.481Z,13.73
2022-11-13T14:47:29.354Z,14.80
2022-11-13T14:50:06.895Z,14.43
2022-11-13T14:52:36.598Z,14.63
2022-11-13T14:55:15.316Z,14.30
2022-11-13T14:57:51.518Z,14.40
2022-11-13T15:00:27.283Z,13.47
2022-11-13T15:02:55.429Z,14.10
2022-11-13T15:05:23.572Z,15.00
2022-11-13T15:07:51.442Z,15.87
2022-11-13T15:10:20.770Z,13.70
2022-11-13T15:12:48.846Z,13.70
2022-11-13T15:15:19.010Z,14.20
2022-11-13T15:17:47.944Z,13.40
2022-11-13T15:20:24.222Z,13.60
2022-11-13T15:22:52.559Z,13.03
2022-11-13T15:25:22.480Z,12.07
2022-11-13T15:27:49.642Z,12.90
2022-11-13T15:30:16.964Z,13.53
2022-11-13T15:32:43.917Z,13.03
2022-11-13T15:35:18.453Z,12.90
2022-11-13T15:37:45.612Z,13.67
2022-11-13T15:40:13.972Z,14.50
2022-11-13T15:42:41.496Z,12.27
2022-11-13T15:45:14.392Z,13.23
2022-11-13T15:47:41.990Z,12.93
2022-11-13T15:50:16.487Z,12.23
2022-11-13T15:52:54.127Z,13.97
2022-11-13T15:55:31.035Z,13.97
2022-11-13T15:57:58.577Z,14.50
2022-11-13T16:00:27.881Z,14.93
2022-11-13T16:02:56.479Z,16.43
2022-11-13T16:05:29.283Z,15.40
2022-11-13T16:07:57.052Z,16.50
2022-11-13T16:10:27.641Z,18.63
2022-11-13T16:12:54.437Z,16.73
2022-11-13T16:15:21.769Z,18.00
2022-11-13T16:17:56.040Z,18.83
2022-11-13T16:20:22.857Z,18.87
2022-11-13T16:22:50.054Z,18.20
2022-11-13T16:25:21.834Z,18.87
2022-11-13T16:27:48.648Z,22.10
2022-11-13T16:30:22.969Z,18.77
2022-11-13T16:32:49.757Z,17.40
2022-11-13T16:35:18.117Z,18.87
2022-11-13T16:37:44.967Z,23.10
2022-11-13T16:40:23.974Z,25.07
2022-11-13T16:42:51.643Z,23.60
2022-11-13T16:45:19.707Z,22.00
2022-11-13T16:47:47.110Z,26.00
2022-11-13T16:50:20.369Z,26.20
2022-11-13T16:52:47.078Z,26.57
2022-11-13T16:55:14.233Z,28.23
2022-11-13T16:57:41.414Z,25.47
2022-11-13T17:00:12.232Z,27.77
2022-11-13T17:02:39.061Z,25.53
2022-11-13T17:05:06.510Z,23.50
2022-11-13T17:07:33.314Z,24.03
2022-11-13T17:10:28.968Z,24.50
2022-11-13T17:12:52.194Z,25.57
2022-11-13T17:15:19.583Z,24.17
2022-11-13T17:17:47.035Z,20.93
2022-11-13T17:20:15.592Z,23.37
2022-11-13T17:22:48.139Z,22.87
2022-11-13T17:25:17.165Z,25.00
2022-11-13T17:27:44.130Z,25.27
2022-11-13T17:30:15.649Z,23.03
2022-11-13T17:32:42.450Z,26.57
2022-11-13T17:35:12.132Z,28.87
2022-11-13T17:37:39.621Z,22.17
2022-11-13T17:40:07.268Z,24.17
2022-11-13T17:42:34.191Z,26.93
2022-11-13T17:45:01.002Z,25.93
2022-11-13T17:47:27.713Z,31.00
2022-11-13T17:49:56.012Z,31.97
2022-11-13T17:52:22.757Z,22.30
2022-11-13T17:54:49.533Z,21.27
2022-11-13T17:57:16.275Z,17.93
2022-11-13T17:59:43.340Z,19.07
2022-11-13T18:02:11.885Z,19.63
2022-11-13T18:04:38.648Z,22.53
2022-11-13T18:07:05.477Z,21.37
2022-11-13T18:09:32.362Z,22.43
2022-11-13T18:11:59.128Z,23.57
2022-11-13T18:14:25.834Z,29.77
2022-11-13T18:16:52.575Z,50.43
2022-11-13T18:19:19.336Z,54.83
2022-11-13T18:21:46.105Z,83.83
2022-11-13T18:24:18.108Z,69.60
2022-11-13T18:26:45.562Z,61.00
2022-11-13T18:29:12.516Z,61.33
2022-11-13T18:31:40.019Z,64.00
2022-11-13T18:34:07.695Z,58.60
2022-11-13T18:36:35.021Z,55.90
2022-11-13T18:39:03.265Z,53.63
2022-11-13T18:41:30.948Z,49.90
2022-11-13T18:43:57.790Z,48.33
2022-11-13T18:46:25.608Z,51.03
2022-11-13T18:48:52.576Z,48.43
2022-11-13T18:51:21.786Z,51.33
2022-11-13T18:53:50.171Z,46.10
2022-11-13T18:56:20.553Z,44.40
2022-11-13T18:58:49.234Z,40.13
2022-11-13T19:01:22.774Z,38.00
2022-11-13T19:04:16.058Z,36.90
2022-11-13T19:06:39.088Z,39.30
2022-11-13T19:09:10.719Z,37.77
2022-11-13T19:11:37.517Z,34.57
2022-11-13T19:14:04.610Z,33.17
2022-11-13T19:16:42.561Z,32.93
2022-11-13T19:19:18.623Z,34.57
2022-11-13T19:21:46.087Z,35.43
2022-11-13T19:24:14.800Z,35.77
2022-11-13T19:26:42.917Z,32.27
2022-11-13T19:29:10.045Z,31.53
2022-11-13T19:31:36.861Z,31.80
2022-11-13T19:34:06.199Z,32.70
2022-11-13T19:36:34.129Z,36.60
2022-11-13T19:39:01.140Z,37.77
2022-11-13T19:41:29.291Z,35.20
2022-11-13T19:43:59.648Z,36.57
2022-11-13T19:46:27.167Z,37.33
2022-11-13T19:48:54.493Z,34.60
2022-11-13T19:51:23.624Z,36.63
2022-11-13T19:53:55.765Z,33.70
2022-11-13T19:56:24.305Z,33.90
2022-11-13T19:58:55.053Z,30.60
2022-11-13T20:01:24.763Z,29.93
2022-11-13T20:03:56.808Z,34.77
2022-11-13T20:06:24.196Z,37.00
2022-11-13T20:08:52.014Z,33.70
2022-11-13T20:11:18.851Z,37.43
2022-11-13T20:13:46.321Z,33.80
2022-11-13T20:16:15.395Z,35.67
2022-11-13T20:18:43.283Z,40.70
2022-11-13T20:21:10.870Z,35.90
2022-11-13T20:23:38.149Z,34.23
2022-11-13T20:26:08.098Z,29.40
2022-11-13T20:28:35.033Z,32.83
2022-11-13T20:31:04.922Z,32.13
2022-11-13T20:33:33.398Z,41.73
2022-11-13T20:36:01.484Z,34.90
2022-11-13T20:38:29.565Z,38.53
2022-11-13T20:40:56.543Z,32.97
2022-11-13T20:43:23.894Z,33.37
2022-11-13T20:45:50.718Z,40.77
2022-11-13T20:48:17.598Z,40.57
2022-11-13T20:50:44.954Z,40.93
2022-11-13T20:53:11.901Z,42.13
2022-11-13T20:55:39.695Z,43.30
2022-11-13T20:58:06.535Z,45.30
2022-11-13T21:00:33.385Z,40.90
2022-11-13T21:03:00.256Z,41.87
2022-11-13T21:05:27.950Z,42.90
2022-11-13T21:07:54.841Z,38.80
2022-11-13T21:10:21.604Z,47.03
2022-11-13T21:12:48.300Z,40.40
2022-11-13T21:15:15.104Z,38.20
2022-11-13T21:17:42.002Z,37.13
2022-11-13T21:20:09.290Z,43.13
2022-11-13T21:22:36.056Z,46.63
2022-11-13T21:25:02.850Z,41.20
2022-11-13T21:27:29.603Z,40.73
2022-11-13T21:29:56.406Z,34.87
2022-11-13T21:32:23.103Z,40.90
2022-11-13T21:34:49.861Z,38.13
2022-11-13T21:37:16.700Z,37.93
2022-11-13T21:39:43.543Z,49.23
2022-11-13T21:42:10.519Z,32.67
2022-11-13T21:44:37.741Z,36.70
2022-11-13T21:47:05.039Z,35.20
2022-11-13T21:49:31.753Z,36.47
2022-11-13T21:51:58.710Z,39.43
2022-11-13T21:54:25.492Z,33.67
2022-11-13T21:56:52.198Z,35.70
2022-11-13T21:59:18.987Z,48.77
2022-11-13T22:01:45.789Z,40.73
2022-11-13T22:04:12.697Z,36.90
2022-11-13T22:06:39.839Z,41.57
2022-11-13T22:09:12.139Z,36.63
2022-11-13T22:11:39.001Z,33.33
2022-11-13T22:14:06.233Z,33.90
2022-11-13T22:16:35.406Z,41.63
2022-11-13T22:19:04.038Z,48.93
2022-11-13T22:21:31.837Z,50.27
2022-11-13T22:23:59.856Z,59.27
2022-11-13T22:26:28.302Z,43.10
2022-11-13T22:28:56.709Z,45.10
2022-11-13T22:31:28.145Z,37.17
2022-11-13T22:33:55.606Z,40.93
2022-11-13T22:36:31.906Z,33.63
2022-11-13T22:38:59.310Z,37.40
2022-11-13T22:41:29.017Z,32.30
2022-11-13T22:44:05.177Z,35.40
2022-11-13T22:46:33.796Z,38.17
2022-11-13T22:49:04.938Z,31.93
2022-11-13T22:51:38.553Z,43.80
2022-11-13T22:54:10.454Z,36.33
2022-11-13T22:56:39.087Z,41.00
2022-11-13T22:59:07.751Z,34.63
2022-11-13T23:01:36.184Z,36.63
2022-11-13T23:04:05.405Z,41.57
2022-11-13T23:06:34.178Z,39.37
2022-11-13T23:09:01.774Z,33.30
2022-11-13T23:11:32.842Z,35.10
2022-11-13T23:14:03.939Z,46.70
2022-11-13T23:16:31.742Z,35.80
2022-11-13T23:18:59.824Z,33.17
2022-11-13T23:21:27.734Z,32.10
2022-11-13T23:23:55.325Z,41.90
2022-11-13T23:26:24.058Z,28.67
2022-11-13T23:28:50.814Z,28.87
2022-11-13T23:31:17.566Z,30.57
2022-11-13T23:33:44.337Z,33.47
2022-11-13T23:36:12.676Z,34.80
2022-11-13T23:38:39.762Z,28.07
2022-11-13T23:41:06.783Z,37.40
2022-11-13T23:44:02.125Z,73.87
2022-11-13T23:46:20.359Z,68.50
2022-11-13T23:48:47.114Z,58.87
2022-11-13T23:51:13.806Z,75.07
2022-11-13T23:53:40.511Z,109.03
2022-11-13T23:56:08.407Z,371.53
2022-11-13T23:58:35.356Z,455.40
